sensor_id;sensor_type;location;lat;lon;timestamp;P1;durP1;ratioP1;P2;durP2;ratioP2
30533;SDS011;17318;52.390;9.754;2022-08-19T00:01:32;11.43;;;6.82;;
30533;SDS011;17318;52.390;9.754;2022-08-19T00:03:59;9.45;;;6.45;;
30533;SDS011;17318;52.390;9.754;2022-08-19T00:06:27;13.90;;;6.20;;
30533;SDS011;17318;52.390;9.754;2022-08-19T00:08:54;10.13;;;6.60;;
30533;SDS011;17318;52.390;9.754;2022-08-19T00:11:21;13.98;;;6.28;;
30533;SDS011;17318;52.390;9.754;2022-08-19T00:13:47;11.65;;;6.82;;
30533;SDS011;17318;52.390;9.754;2022-08-19T00:16:15;10.95;;;6.30;;
30533;SDS011;17318;52.390;9.754;2022-08-19T00:18:44;11.10;;;6.50;;
30533;SDS011;17318;52.390;9.754;2022-08-19T00:21:09;9.15;;;5.95;;
30533;SDS011;17318;52.390;9.754;2022-08-19T00:23:35;9.77;;;5.82;;
30533;SDS011;17318;52.390;9.754;2022-08-19T00:26:06;9.10;;;5.88;;
30533;SDS011;17318;52.390;9.754;2022-08-19T00:28:33;8.40;;;6.43;;
30533;SDS011;17318;52.390;9.754;2022-08-19T00:31:00;8.70;;;5.80;;
30533;SDS011;17318;52.390;9.754;2022-08-19T00:33:30;12.10;;;6.60;;
30533;SDS011;17318;52.390;9.754;2022-08-19T00:35:59;10.80;;;5.95;;
30533;SDS011;17318;52.390;9.754;2022-08-19T00:38:26;10.85;;;5.80;;
30533;SDS011;17318;52.390;9.754;2022-08-19T00:40:54;9.82;;;6.05;;
30533;SDS011;17318;52.390;9.754;2022-08-19T00:43:20;13.23;;;6.40;;
30533;SDS011;17318;52.390;9.754;2022-08-19T00:45:48;10.40;;;6.50;;
30533;SDS011;17318;52.390;9.754;2022-08-19T00:48:15;11.27;;;6.35;;
30533;SDS011;17318;52.390;9.754;2022-08-19T00:50:41;14.82;;;6.95;;
30533;SDS011;17318;52.390;9.754;2022-08-19T00:53:09;13.85;;;7.07;;
30533;SDS011;17318;52.390;9.754;2022-08-19T00:55:36;9.80;;;6.63;;
30533;SDS011;17318;52.390;9.754;2022-08-19T00:58:07;11.77;;;6.60;;
30533;SDS011;17318;52.390;9.754;2022-08-19T01:00:36;9.23;;;6.00;;
30533;SDS011;17318;52.390;9.754;2022-08-19T01:03:05;10.15;;;6.25;;
30533;SDS011;17318;52.390;9.754;2022-08-19T01:05:32;11.43;;;6.75;;
30533;SDS011;17318;52.390;9.754;2022-08-19T01:08:00;13.90;;;7.60;;
30533;SDS011;17318;52.390;9.754;2022-08-19T01:10:29;12.15;;;6.43;;
30533;SDS011;17318;52.390;9.754;2022-08-19T01:12:58;10.38;;;6.57;;
30533;SDS011;17318;52.390;9.754;2022-08-19T01:15:27;10.93;;;6.63;;
30533;SDS011;17318;52.390;9.754;2022-08-19T01:17:59;11.48;;;7.20;;
30533;SDS011;17318;52.390;9.754;2022-08-19T01:20:31;14.63;;;6.90;;
30533;SDS011;17318;52.390;9.754;2022-08-19T01:22:58;11.43;;;6.38;;
30533;SDS011;17318;52.390;9.754;2022-08-19T01:25:26;16.15;;;6.80;;
30533;SDS011;17318;52.390;9.754;2022-08-19T01:27:56;17.85;;;8.00;;
30533;SDS011;17318;52.390;9.754;2022-08-19T01:30:24;13.52;;;6.78;;
30533;SDS011;17318;52.390;9.754;2022-08-19T01:32:53;12.48;;;7.35;;
30533;SDS011;17318;52.390;9.754;2022-08-19T01:35:20;12.05;;;7.07;;
30533;SDS011;17318;52.390;9.754;2022-08-19T01:40:17;9.88;;;6.22;;
30533;SDS011;17318;52.390;9.754;2022-08-19T01:42:45;12.93;;;8.18;;
30533;SDS011;17318;52.390;9.754;2022-08-19T01:45:12;15.13;;;7.30;;
30533;SDS011;17318;52.390;9.754;2022-08-19T01:47:38;11.23;;;7.10;;
30533;SDS011;17318;52.390;9.754;2022-08-19T01:50:05;9.68;;;7.10;;
30533;SDS011;17318;52.390;9.754;2022-08-19T01:52:34;13.45;;;6.90;;
30533;SDS011;17318;52.390;9.754;2022-08-19T01:55:01;11.63;;;6.90;;
30533;SDS011;17318;52.390;9.754;2022-08-19T01:57:26;14.25;;;7.63;;
30533;SDS011;17318;52.390;9.754;2022-08-19T01:59:52;14.20;;;7.38;;
30533;SDS011;17318;52.390;9.754;2022-08-19T02:02:18;14.98;;;7.50;;
30533;SDS011;17318;52.390;9.754;2022-08-19T02:04:44;16.85;;;7.40;;
30533;SDS011;17318;52.390;9.754;2022-08-19T02:07:11;16.45;;;8.35;;
30533;SDS011;17318;52.390;9.754;2022-08-19T02:09:37;12.43;;;7.00;;
30533;SDS011;17318;52.390;9.754;2022-08-19T02:12:03;15.60;;;7.90;;
30533;SDS011;17318;52.390;9.754;2022-08-19T02:14:30;13.20;;;7.35;;
30533;SDS011;17318;52.390;9.754;2022-08-19T02:16:56;13.20;;;8.18;;
30533;SDS011;17318;52.390;9.754;2022-08-19T02:19:21;10.65;;;6.85;;
30533;SDS011;17318;52.390;9.754;2022-08-19T02:21:47;13.98;;;7.15;;
30533;SDS011;17318;52.390;9.754;2022-08-19T02:24:13;17.33;;;7.03;;
30533;SDS011;17318;52.390;9.754;2022-08-19T02:26:38;11.88;;;6.93;;
30533;SDS011;17318;52.390;9.754;2022-08-19T02:29:04;11.48;;;6.57;;
30533;SDS011;17318;52.390;9.754;2022-08-19T02:31:30;11.98;;;7.30;;
30533;SDS011;17318;52.390;9.754;2022-08-19T02:33:56;10.85;;;6.65;;
30533;SDS011;17318;52.390;9.754;2022-08-19T02:36:22;13.13;;;6.70;;
30533;SDS011;17318;52.390;9.754;2022-08-19T02:38:50;11.50;;;6.35;;
30533;SDS011;17318;52.390;9.754;2022-08-19T02:41:17;11.63;;;6.75;;
30533;SDS011;17318;52.390;9.754;2022-08-19T02:43:45;9.73;;;6.53;;
30533;SDS011;17318;52.390;9.754;2022-08-19T02:46:12;10.85;;;6.25;;
30533;SDS011;17318;52.390;9.754;2022-08-19T02:51:04;15.75;;;6.95;;
30533;SDS011;17318;52.390;9.754;2022-08-19T02:53:30;14.95;;;7.38;;
30533;SDS011;17318;52.390;9.754;2022-08-19T02:55:56;11.45;;;6.82;;
30533;SDS011;17318;52.390;9.754;2022-08-19T02:58:22;11.18;;;6.28;;
30533;SDS011;17318;52.390;9.754;2022-08-19T03:00:52;12.73;;;6.43;;
30533;SDS011;17318;52.390;9.754;2022-08-19T03:03:20;13.10;;;7.10;;
30533;SDS011;17318;52.390;9.754;2022-08-19T03:05:46;11.88;;;6.32;;
30533;SDS011;17318;52.390;9.754;2022-08-19T03:08:12;12.70;;;6.50;;
30533;SDS011;17318;52.390;9.754;2022-08-19T03:10:42;12.40;;;6.00;;
30533;SDS011;17318;52.390;9.754;2022-08-19T03:13:15;9.20;;;5.88;;
30533;SDS011;17318;52.390;9.754;2022-08-19T03:15:44;12.77;;;6.22;;
30533;SDS011;17318;52.390;9.754;2022-08-19T03:18:11;11.48;;;6.15;;
30533;SDS011;17318;52.390;9.754;2022-08-19T03:20:45;9.93;;;6.75;;
30533;SDS011;17318;52.390;9.754;2022-08-19T03:23:17;14.00;;;5.57;;
30533;SDS011;17318;52.390;9.754;2022-08-19T03:25:44;13.35;;;6.68;;
30533;SDS011;17318;52.390;9.754;2022-08-19T03:28:11;12.43;;;5.57;;
30533;SDS011;17318;52.390;9.754;2022-08-19T03:30:39;10.63;;;6.10;;
30533;SDS011;17318;52.390;9.754;2022-08-19T03:33:09;9.70;;;5.93;;
30533;SDS011;17318;52.390;9.754;2022-08-19T03:35:36;12.68;;;5.25;;
30533;SDS011;17318;52.390;9.754;2022-08-19T03:38:05;12.00;;;6.40;;
30533;SDS011;17318;52.390;9.754;2022-08-19T03:40:32;12.05;;;6.30;;
30533;SDS011;17318;52.390;9.754;2022-08-19T03:43:01;14.55;;;6.25;;
30533;SDS011;17318;52.390;9.754;2022-08-19T03:45:27;10.40;;;6.25;;
30533;SDS011;17318;52.390;9.754;2022-08-19T03:47:53;10.55;;;6.22;;
30533;SDS011;17318;52.390;9.754;2022-08-19T03:50:19;11.18;;;6.47;;
30533;SDS011;17318;52.390;9.754;2022-08-19T03:52:49;11.00;;;5.63;;
30533;SDS011;17318;52.390;9.754;2022-08-19T03:55:15;12.98;;;6.07;;
30533;SDS011;17318;52.390;9.754;2022-08-19T03:57:42;10.65;;;6.65;;
30533;SDS011;17318;52.390;9.754;2022-08-19T04:00:07;9.82;;;6.45;;
30533;SDS011;17318;52.390;9.754;2022-08-19T04:02:34;11.38;;;6.72;;
30533;SDS011;17318;52.390;9.754;2022-08-19T04:05:00;9.63;;;6.35;;
30533;SDS011;17318;52.390;9.754;2022-08-19T04:07:25;8.98;;;6.85;;
30533;SDS011;17318;52.390;9.754;2022-08-19T04:09:51;12.23;;;5.78;;
30533;SDS011;17318;52.390;9.754;2022-08-19T04:12:18;11.40;;;6.07;;
30533;SDS011;17318;52.390;9.754;2022-08-19T04:14:45;10.97;;;6.30;;
30533;SDS011;17318;52.390;9.754;2022-08-19T04:17:11;12.20;;;6.15;;
30533;SDS011;17318;52.390;9.754;2022-08-19T04:22:05;10.88;;;6.00;;
30533;SDS011;17318;52.390;9.754;2022-08-19T04:24:31;15.35;;;6.20;;
30533;SDS011;17318;52.390;9.754;2022-08-19T04:26:59;18.10;;;7.05;;
30533;SDS011;17318;52.390;9.754;2022-08-19T04:29:26;11.27;;;6.43;;
30533;SDS011;17318;52.390;9.754;2022-08-19T04:31:53;11.57;;;6.35;;
30533;SDS011;17318;52.390;9.754;2022-08-19T04:34:21;10.82;;;5.43;;
30533;SDS011;17318;52.390;9.754;2022-08-19T04:36:49;12.52;;;6.15;;
30533;SDS011;17318;52.390;9.754;2022-08-19T04:39:17;12.02;;;6.65;;
30533;SDS011;17318;52.390;9.754;2022-08-19T04:41:45;11.65;;;6.82;;
30533;SDS011;17318;52.390;9.754;2022-08-19T04:44:30;9.38;;;5.82;;
30533;SDS011;17318;52.390;9.754;2022-08-19T04:46:57;14.70;;;6.32;;
30533;SDS011;17318;52.390;9.754;2022-08-19T04:49:23;10.43;;;5.85;;
30533;SDS011;17318;52.390;9.754;2022-08-19T04:51:51;8.63;;;5.10;;
30533;SDS011;17318;52.390;9.754;2022-08-19T04:54:19;10.90;;;5.55;;
30533;SDS011;17318;52.390;9.754;2022-08-19T04:56:47;9.82;;;5.93;;
30533;SDS011;17318;52.390;9.754;2022-08-19T04:59:18;10.95;;;5.97;;
30533;SDS011;17318;52.390;9.754;2022-08-19T05:01:45;12.80;;;6.77;;
30533;SDS011;17318;52.390;9.754;2022-08-19T05:04:15;11.48;;;5.90;;
30533;SDS011;17318;52.390;9.754;2022-08-19T05:06:44;10.05;;;6.43;;
30533;SDS011;17318;52.390;9.754;2022-08-19T05:09:12;10.27;;;6.03;;
30533;SDS011;17318;52.390;9.754;2022-08-19T05:11:38;10.38;;;6.82;;
30533;SDS011;17318;52.390;9.754;2022-08-19T05:14:04;9.85;;;6.28;;
30533;SDS011;17318;52.390;9.754;2022-08-19T05:16:31;12.25;;;7.00;;
30533;SDS011;17318;52.390;9.754;2022-08-19T05:18:56;12.85;;;6.00;;
30533;SDS011;17318;52.390;9.754;2022-08-19T05:21:41;12.10;;;7.00;;
30533;SDS011;17318;52.390;9.754;2022-08-19T05:24:27;17.35;;;7.35;;
30533;SDS011;17318;52.390;9.754;2022-08-19T05:26:54;13.05;;;6.43;;
30533;SDS011;17318;52.390;9.754;2022-08-19T05:29:24;15.02;;;7.18;;
30533;SDS011;17318;52.390;9.754;2022-08-19T05:31:52;17.40;;;7.65;;
30533;SDS011;17318;52.390;9.754;2022-08-19T05:34:19;12.13;;;7.23;;
30533;SDS011;17318;52.390;9.754;2022-08-19T05:36:48;15.32;;;7.50;;
30533;SDS011;17318;52.390;9.754;2022-08-19T05:39:19;13.35;;;7.28;;
30533;SDS011;17318;52.390;9.754;2022-08-19T05:41:46;14.30;;;8.02;;
30533;SDS011;17318;52.390;9.754;2022-08-19T05:44:22;13.48;;;8.00;;
30533;SDS011;17318;52.390;9.754;2022-08-19T05:46:49;11.77;;;6.93;;
30533;SDS011;17318;52.390;9.754;2022-08-19T05:49:18;12.18;;;7.35;;
30533;SDS011;17318;52.390;9.754;2022-08-19T05:51:44;15.73;;;8.10;;
30533;SDS011;17318;52.390;9.754;2022-08-19T05:54:10;19.08;;;9.00;;
30533;SDS011;17318;52.390;9.754;2022-08-19T05:56:38;15.27;;;9.52;;
30533;SDS011;17318;52.390;9.754;2022-08-19T05:59:06;21.10;;;10.10;;
30533;SDS011;17318;52.390;9.754;2022-08-19T06:01:34;17.15;;;10.52;;
30533;SDS011;17318;52.390;9.754;2022-08-19T06:04:02;16.63;;;10.40;;
30533;SDS011;17318;52.390;9.754;2022-08-19T06:06:28;19.95;;;11.48;;
30533;SDS011;17318;52.390;9.754;2022-08-19T06:08:54;17.13;;;10.90;;
30533;SDS011;17318;52.390;9.754;2022-08-19T06:13:52;20.55;;;11.93;;
30533;SDS011;17318;52.390;9.754;2022-08-19T06:18:55;23.75;;;13.77;;
30533;SDS011;17318;52.390;9.754;2022-08-19T06:21:23;27.48;;;13.85;;
30533;SDS011;17318;52.390;9.754;2022-08-19T06:23:50;23.05;;;13.63;;
30533;SDS011;17318;52.390;9.754;2022-08-19T06:26:18;29.40;;;13.75;;
30533;SDS011;17318;52.390;9.754;2022-08-19T06:28:45;19.50;;;13.55;;
30533;SDS011;17318;52.390;9.754;2022-08-19T06:31:13;24.85;;;13.27;;
30533;SDS011;17318;52.390;9.754;2022-08-19T06:33:40;23.77;;;12.90;;
30533;SDS011;17318;52.390;9.754;2022-08-19T06:36:23;25.00;;;12.50;;
30533;SDS011;17318;52.390;9.754;2022-08-19T06:38:55;23.92;;;11.73;;
30533;SDS011;17318;52.390;9.754;2022-08-19T06:41:24;29.02;;;14.82;;
30533;SDS011;17318;52.390;9.754;2022-08-19T06:43:51;26.35;;;13.10;;
30533;SDS011;17318;52.390;9.754;2022-08-19T06:46:17;19.70;;;11.32;;
30533;SDS011;17318;52.390;9.754;2022-08-19T06:48:45;21.55;;;11.65;;
30533;SDS011;17318;52.390;9.754;2022-08-19T06:51:13;22.83;;;12.93;;
30533;SDS011;17318;52.390;9.754;2022-08-19T06:53:43;25.17;;;12.70;;
30533;SDS011;17318;52.390;9.754;2022-08-19T06:58:38;25.52;;;12.10;;
30533;SDS011;17318;52.390;9.754;2022-08-19T07:01:04;20.00;;;12.05;;
30533;SDS011;17318;52.390;9.754;2022-08-19T07:03:31;23.60;;;13.93;;
30533;SDS011;17318;52.390;9.754;2022-08-19T07:06:09;22.45;;;12.25;;
30533;SDS011;17318;52.390;9.754;2022-08-19T07:08:37;22.17;;;12.02;;
30533;SDS011;17318;52.390;9.754;2022-08-19T07:11:06;22.02;;;12.73;;
30533;SDS011;17318;52.390;9.754;2022-08-19T07:13:34;24.63;;;13.82;;
30533;SDS011;17318;52.390;9.754;2022-08-19T07:16:03;22.75;;;12.40;;
30533;SDS011;17318;52.390;9.754;2022-08-19T07:18:34;27.42;;;13.48;;
30533;SDS011;17318;52.390;9.754;2022-08-19T07:23:34;18.67;;;11.43;;
30533;SDS011;17318;52.390;9.754;2022-08-19T07:26:07;20.98;;;11.50;;
30533;SDS011;17318;52.390;9.754;2022-08-19T07:28:41;22.75;;;13.07;;
30533;SDS011;17318;52.390;9.754;2022-08-19T07:31:09;26.53;;;15.90;;
30533;SDS011;17318;52.390;9.754;2022-08-19T07:33:37;26.05;;;13.93;;
30533;SDS011;17318;52.390;9.754;2022-08-19T07:36:06;23.83;;;15.02;;
30533;SDS011;17318;52.390;9.754;2022-08-19T07:38:36;26.02;;;15.20;;
30533;SDS011;17318;52.390;9.754;2022-08-19T07:41:06;26.33;;;16.33;;
30533;SDS011;17318;52.390;9.754;2022-08-19T07:43:35;30.67;;;17.92;;
30533;SDS011;17318;52.390;9.754;2022-08-19T07:46:01;28.08;;;17.15;;
30533;SDS011;17318;52.390;9.754;2022-08-19T07:48:27;28.17;;;18.48;;
30533;SDS011;17318;52.390;9.754;2022-08-19T07:50:58;27.73;;;17.60;;
30533;SDS011;17318;52.390;9.754;2022-08-19T07:53:31;33.00;;;18.77;;
30533;SDS011;17318;52.390;9.754;2022-08-19T07:55:58;30.58;;;18.13;;
30533;SDS011;17318;52.390;9.754;2022-08-19T07:58:29;24.73;;;17.40;;
30533;SDS011;17318;52.390;9.754;2022-08-19T08:01:00;27.92;;;15.82;;
30533;SDS011;17318;52.390;9.754;2022-08-19T08:03:29;26.60;;;16.73;;
30533;SDS011;17318;52.390;9.754;2022-08-19T08:06:14;24.90;;;15.75;;
30533;SDS011;17318;52.390;9.754;2022-08-19T08:08:58;23.05;;;16.13;;
30533;SDS011;17318;52.390;9.754;2022-08-19T08:11:40;25.38;;;15.95;;
30533;SDS011;17318;52.390;9.754;2022-08-19T08:14:13;24.05;;;14.95;;
30533;SDS011;17318;52.390;9.754;2022-08-19T08:16:40;26.23;;;14.60;;
30533;SDS011;17318;52.390;9.754;2022-08-19T08:19:06;16.83;;;11.40;;
30533;SDS011;17318;52.390;9.754;2022-08-19T08:21:33;19.73;;;11.80;;
30533;SDS011;17318;52.390;9.754;2022-08-19T08:23:59;19.25;;;12.43;;
30533;SDS011;17318;52.390;9.754;2022-08-19T08:26:24;16.90;;;11.82;;
30533;SDS011;17318;52.390;9.754;2022-08-19T08:28:51;23.58;;;11.13;;
30533;SDS011;17318;52.390;9.754;2022-08-19T08:31:17;15.88;;;11.50;;
30533;SDS011;17318;52.390;9.754;2022-08-19T08:33:44;16.27;;;10.70;;
30533;SDS011;17318;52.390;9.754;2022-08-19T08:36:11;15.57;;;10.32;;
30533;SDS011;17318;52.390;9.754;2022-08-19T08:43:38;16.58;;;10.13;;
30533;SDS011;17318;52.390;9.754;2022-08-19T08:46:17;14.82;;;9.10;;
30533;SDS011;17318;52.390;9.754;2022-08-19T08:51:57;11.65;;;8.60;;
30533;SDS011;17318;52.390;9.754;2022-08-19T08:54:39;11.73;;;8.63;;
30533;SDS011;17318;52.390;9.754;2022-08-19T08:57:10;12.48;;;8.30;;
30533;SDS011;17318;52.390;9.754;2022-08-19T08:59:43;15.63;;;8.40;;
30533;SDS011;17318;52.390;9.754;2022-08-19T09:02:15;10.52;;;7.50;;
30533;SDS011;17318;52.390;9.754;2022-08-19T09:04:41;10.45;;;7.43;;
30533;SDS011;17318;52.390;9.754;2022-08-19T09:09:49;16.55;;;7.47;;
30533;SDS011;17318;52.390;9.754;2022-08-19T09:12:25;7.43;;;6.25;;
30533;SDS011;17318;52.390;9.754;2022-08-19T09:15:09;11.57;;;6.50;;
30533;SDS011;17318;52.390;9.754;2022-08-19T09:17:39;11.45;;;6.35;;
30533;SDS011;17318;52.390;9.754;2022-08-19T09:22:37;11.40;;;6.80;;
30533;SDS011;17318;52.390;9.754;2022-08-19T09:25:05;10.93;;;6.43;;
30533;SDS011;17318;52.390;9.754;2022-08-19T09:27:33;9.38;;;6.13;;
30533;SDS011;17318;52.390;9.754;2022-08-19T09:30:02;10.57;;;7.03;;
30533;SDS011;17318;52.390;9.754;2022-08-19T09:32:30;16.23;;;7.40;;
30533;SDS011;17318;52.390;9.754;2022-08-19T09:34:56;11.40;;;6.38;;
30533;SDS011;17318;52.390;9.754;2022-08-19T09:37:23;17.98;;;5.93;;
30533;SDS011;17318;52.390;9.754;2022-08-19T09:39:49;9.77;;;6.05;;
30533;SDS011;17318;52.390;9.754;2022-08-19T09:42:16;12.27;;;5.63;;
30533;SDS011;17318;52.390;9.754;2022-08-19T09:44:42;8.50;;;5.35;;
30533;SDS011;17318;52.390;9.754;2022-08-19T09:47:08;16.52;;;5.40;;
30533;SDS011;17318;52.390;9.754;2022-08-19T09:49:36;9.77;;;4.82;;
30533;SDS011;17318;52.390;9.754;2022-08-19T09:52:04;8.88;;;5.50;;
30533;SDS011;17318;52.390;9.754;2022-08-19T09:54:32;9.43;;;5.07;;
30533;SDS011;17318;52.390;9.754;2022-08-19T09:56:58;12.15;;;5.22;;
30533;SDS011;17318;52.390;9.754;2022-08-19T09:59:28;6.07;;;4.35;;
30533;SDS011;17318;52.390;9.754;2022-08-19T10:01:54;9.00;;;5.55;;
30533;SDS011;17318;52.390;9.754;2022-08-19T10:04:21;7.90;;;4.60;;
30533;SDS011;17318;52.390;9.754;2022-08-19T10:06:47;6.72;;;4.15;;
30533;SDS011;17318;52.390;9.754;2022-08-19T10:09:15;7.65;;;4.80;;
30533;SDS011;17318;52.390;9.754;2022-08-19T10:11:42;11.82;;;6.93;;
30533;SDS011;17318;52.390;9.754;2022-08-19T10:14:14;10.07;;;4.28;;
30533;SDS011;17318;52.390;9.754;2022-08-19T10:16:41;7.38;;;4.80;;
30533;SDS011;17318;52.390;9.754;2022-08-19T10:19:07;7.28;;;5.43;;
30533;SDS011;17318;52.390;9.754;2022-08-19T10:21:34;9.43;;;4.97;;
30533;SDS011;17318;52.390;9.754;2022-08-19T10:24:02;6.88;;;4.80;;
30533;SDS011;17318;52.390;9.754;2022-08-19T10:26:30;10.88;;;4.93;;
30533;SDS011;17318;52.390;9.754;2022-08-19T10:28:58;15.65;;;5.50;;
30533;SDS011;17318;52.390;9.754;2022-08-19T10:31:26;4.32;;;3.92;;
30533;SDS011;17318;52.390;9.754;2022-08-19T10:33:54;6.60;;;4.32;;
30533;SDS011;17318;52.390;9.754;2022-08-19T10:36:23;8.93;;;4.70;;
30533;SDS011;17318;52.390;9.754;2022-08-19T10:38:56;8.52;;;4.88;;
30533;SDS011;17318;52.390;9.754;2022-08-19T10:41:28;8.95;;;4.40;;
30533;SDS011;17318;52.390;9.754;2022-08-19T10:43:57;7.50;;;4.22;;
30533;SDS011;17318;52.390;9.754;2022-08-19T10:46:25;11.98;;;3.88;;
30533;SDS011;17318;52.390;9.754;2022-08-19T10:48:53;7.13;;;3.83;;
30533;SDS011;17318;52.390;9.754;2022-08-19T10:51:19;6.13;;;4.10;;
30533;SDS011;17318;52.390;9.754;2022-08-19T10:54:04;7.28;;;3.55;;
30533;SDS011;17318;52.390;9.754;2022-08-19T10:56:30;10.10;;;4.00;;
30533;SDS011;17318;52.390;9.754;2022-08-19T10:59:16;6.10;;;3.53;;
30533;SDS011;17318;52.390;9.754;2022-08-19T11:01:52;8.70;;;3.88;;
30533;SDS011;17318;52.390;9.754;2022-08-19T11:04:19;5.13;;;3.20;;
30533;SDS011;17318;52.390;9.754;2022-08-19T11:06:47;6.82;;;3.83;;
30533;SDS011;17318;52.390;9.754;2022-08-19T11:09:16;5.82;;;3.78;;
30533;SDS011;17318;52.390;9.754;2022-08-19T11:11:43;7.55;;;3.80;;
30533;SDS011;17318;52.390;9.754;2022-08-19T11:14:11;5.32;;;3.50;;
30533;SDS011;17318;52.390;9.754;2022-08-19T11:16:39;7.18;;;3.42;;
30533;SDS011;17318;52.390;9.754;2022-08-19T11:19:06;4.05;;;2.72;;
30533;SDS011;17318;52.390;9.754;2022-08-19T11:24:05;6.82;;;2.58;;
30533;SDS011;17318;52.390;9.754;2022-08-19T11:26:33;4.45;;;3.47;;
30533;SDS011;17318;52.390;9.754;2022-08-19T11:29:00;6.95;;;2.67;;
30533;SDS011;17318;52.390;9.754;2022-08-19T11:31:27;7.13;;;3.10;;
30533;SDS011;17318;52.390;9.754;2022-08-19T11:33:56;4.38;;;2.55;;
30533;SDS011;17318;52.390;9.754;2022-08-19T11:36:24;4.55;;;2.25;;
30533;SDS011;17318;52.390;9.754;2022-08-19T11:38:50;7.45;;;2.53;;
30533;SDS011;17318;52.390;9.754;2022-08-19T11:41:17;4.97;;;3.55;;
30533;SDS011;17318;52.390;9.754;2022-08-19T11:43:45;4.47;;;2.60;;
30533;SDS011;17318;52.390;9.754;2022-08-19T11:46:12;3.83;;;2.38;;
30533;SDS011;17318;52.390;9.754;2022-08-19T11:48:39;10.32;;;2.53;;
30533;SDS011;17318;52.390;9.754;2022-08-19T11:51:06;5.10;;;2.50;;
30533;SDS011;17318;52.390;9.754;2022-08-19T11:53:34;4.75;;;2.40;;
30533;SDS011;17318;52.390;9.754;2022-08-19T11:56:01;4.20;;;2.38;;
30533;SDS011;17318;52.390;9.754;2022-08-19T11:58:29;6.45;;;2.70;;
30533;SDS011;17318;52.390;9.754;2022-08-19T12:00:55;4.85;;;2.70;;
30533;SDS011;17318;52.390;9.754;2022-08-19T12:03:21;3.13;;;2.42;;
30533;SDS011;17318;52.390;9.754;2022-08-19T12:05:47;6.05;;;2.63;;
30533;SDS011;17318;52.390;9.754;2022-08-19T12:08:14;3.95;;;2.25;;
30533;SDS011;17318;52.390;9.754;2022-08-19T12:10:40;3.58;;;2.30;;
30533;SDS011;17318;52.390;9.754;2022-08-19T12:13:07;8.05;;;3.42;;
30533;SDS011;17318;52.390;9.754;2022-08-19T12:15:37;7.10;;;2.25;;
30533;SDS011;17318;52.390;9.754;2022-08-19T12:18:06;7.40;;;2.55;;
30533;SDS011;17318;52.390;9.754;2022-08-19T12:20:36;4.25;;;3.58;;
30533;SDS011;17318;52.390;9.754;2022-08-19T12:23:05;3.75;;;2.60;;
30533;SDS011;17318;52.390;9.754;2022-08-19T12:25:31;4.37;;;2.53;;
30533;SDS011;17318;52.390;9.754;2022-08-19T12:27:58;9.43;;;2.90;;
30533;SDS011;17318;52.390;9.754;2022-08-19T12:30:24;4.97;;;3.10;;
30533;SDS011;17318;52.390;9.754;2022-08-19T12:32:50;6.30;;;4.10;;
30533;SDS011;17318;52.390;9.754;2022-08-19T12:35:16;5.18;;;2.67;;
30533;SDS011;17318;52.390;9.754;2022-08-19T12:37:45;4.50;;;2.40;;
30533;SDS011;17318;52.390;9.754;2022-08-19T12:40:11;5.03;;;2.83;;
30533;SDS011;17318;52.390;9.754;2022-08-19T12:42:39;3.45;;;2.40;;
30533;SDS011;17318;52.390;9.754;2022-08-19T12:45:09;7.97;;;2.13;;
30533;SDS011;17318;52.390;9.754;2022-08-19T12:47:36;5.80;;;2.20;;
30533;SDS011;17318;52.390;9.754;2022-08-19T12:50:02;3.00;;;2.20;;
30533;SDS011;17318;52.390;9.754;2022-08-19T12:52:29;3.78;;;2.45;;
30533;SDS011;17318;52.390;9.754;2022-08-19T12:54:55;4.35;;;2.35;;
30533;SDS011;17318;52.390;9.754;2022-08-19T12:57:23;4.53;;;2.13;;
30533;SDS011;17318;52.390;9.754;2022-08-19T12:59:53;5.10;;;2.38;;
30533;SDS011;17318;52.390;9.754;2022-08-19T13:02:19;3.40;;;2.40;;
30533;SDS011;17318;52.390;9.754;2022-08-19T13:04:46;3.35;;;1.80;;
30533;SDS011;17318;52.390;9.754;2022-08-19T13:07:12;2.40;;;1.67;;
30533;SDS011;17318;52.390;9.754;2022-08-19T13:09:37;4.22;;;2.13;;
30533;SDS011;17318;52.390;9.754;2022-08-19T13:12:06;4.65;;;2.15;;
30533;SDS011;17318;52.390;9.754;2022-08-19T13:14:33;4.30;;;1.80;;
30533;SDS011;17318;52.390;9.754;2022-08-19T13:16:59;3.92;;;2.08;;
30533;SDS011;17318;52.390;9.754;2022-08-19T13:19:25;4.68;;;2.03;;
30533;SDS011;17318;52.390;9.754;2022-08-19T13:21:52;2.85;;;1.55;;
30533;SDS011;17318;52.390;9.754;2022-08-19T13:24:20;7.78;;;2.97;;
30533;SDS011;17318;52.390;9.754;2022-08-19T13:26:46;4.57;;;2.28;;
30533;SDS011;17318;52.390;9.754;2022-08-19T13:29:12;2.00;;;1.77;;
30533;SDS011;17318;52.390;9.754;2022-08-19T13:31:57;6.68;;;3.38;;
30533;SDS011;17318;52.390;9.754;2022-08-19T13:34:41;4.85;;;1.80;;
30533;SDS011;17318;52.390;9.754;2022-08-19T13:37:07;5.78;;;2.33;;
30533;SDS011;17318;52.390;9.754;2022-08-19T13:39:33;4.13;;;1.90;;
30533;SDS011;17318;52.390;9.754;2022-08-19T13:41:59;5.55;;;2.50;;
30533;SDS011;17318;52.390;9.754;2022-08-19T13:44:25;3.40;;;1.65;;
30533;SDS011;17318;52.390;9.754;2022-08-19T13:46:54;6.18;;;1.90;;
30533;SDS011;17318;52.390;9.754;2022-08-19T13:49:24;8.52;;;1.90;;
30533;SDS011;17318;52.390;9.754;2022-08-19T13:51:50;5.70;;;2.10;;
30533;SDS011;17318;52.390;9.754;2022-08-19T13:54:16;4.45;;;2.28;;
30533;SDS011;17318;52.390;9.754;2022-08-19T13:56:42;4.15;;;2.40;;
30533;SDS011;17318;52.390;9.754;2022-08-19T14:01:36;6.15;;;1.75;;
30533;SDS011;17318;52.390;9.754;2022-08-19T14:04:02;3.30;;;1.75;;
30533;SDS011;17318;52.390;9.754;2022-08-19T14:06:28;1.42;;;1.30;;
30533;SDS011;17318;52.390;9.754;2022-08-19T14:08:54;10.23;;;1.80;;
30533;SDS011;17318;52.390;9.754;2022-08-19T14:11:20;3.13;;;2.10;;
30533;SDS011;17318;52.390;9.754;2022-08-19T14:13:47;3.90;;;1.80;;
30533;SDS011;17318;52.390;9.754;2022-08-19T14:16:13;4.85;;;1.70;;
30533;SDS011;17318;52.390;9.754;2022-08-19T14:18:39;3.47;;;1.52;;
30533;SDS011;17318;52.390;9.754;2022-08-19T14:21:06;2.22;;;1.30;;
30533;SDS011;17318;52.390;9.754;2022-08-19T14:23:33;3.65;;;1.98;;
30533;SDS011;17318;52.390;9.754;2022-08-19T14:26:10;3.38;;;1.50;;
30533;SDS011;17318;52.390;9.754;2022-08-19T14:28:38;3.30;;;1.85;;
30533;SDS011;17318;52.390;9.754;2022-08-19T14:31:07;5.03;;;1.90;;
30533;SDS011;17318;52.390;9.754;2022-08-19T14:33:33;6.35;;;1.98;;
30533;SDS011;17318;52.390;9.754;2022-08-19T14:35:59;4.57;;;2.28;;
30533;SDS011;17318;52.390;9.754;2022-08-19T14:38:25;5.50;;;1.60;;
30533;SDS011;17318;52.390;9.754;2022-08-19T14:40:51;4.03;;;1.75;;
30533;SDS011;17318;52.390;9.754;2022-08-19T14:43:17;2.50;;;1.67;;
30533;SDS011;17318;52.390;9.754;2022-08-19T14:45:43;5.07;;;1.80;;
30533;SDS011;17318;52.390;9.754;2022-08-19T14:48:09;5.30;;;1.77;;
30533;SDS011;17318;52.390;9.754;2022-08-19T14:50:35;3.78;;;2.60;;
30533;SDS011;17318;52.390;9.754;2022-08-19T14:53:06;3.17;;;1.80;;
30533;SDS011;17318;52.390;9.754;2022-08-19T14:55:34;3.35;;;1.98;;
30533;SDS011;17318;52.390;9.754;2022-08-19T14:58:00;2.65;;;1.80;;
30533;SDS011;17318;52.390;9.754;2022-08-19T15:00:26;2.33;;;1.67;;
30533;SDS011;17318;52.390;9.754;2022-08-19T15:02:52;3.08;;;2.10;;
30533;SDS011;17318;52.390;9.754;2022-08-19T15:05:19;3.45;;;1.70;;
30533;SDS011;17318;52.390;9.754;2022-08-19T15:07:45;4.68;;;1.83;;
30533;SDS011;17318;52.390;9.754;2022-08-19T15:10:12;4.13;;;1.50;;
30533;SDS011;17318;52.390;9.754;2022-08-19T15:12:39;3.05;;;1.60;;
30533;SDS011;17318;52.390;9.754;2022-08-19T15:15:06;3.65;;;1.70;;
30533;SDS011;17318;52.390;9.754;2022-08-19T15:17:33;2.80;;;1.30;;
30533;SDS011;17318;52.390;9.754;2022-08-19T15:20:02;4.10;;;1.67;;